Time;durP1;ratioP1;P1;durP2;ratioP2;P2;SDS_P1;SDS_P2;PMS_P1;PMS_P2;Temp;Humidity;BMP_temperature;BMP_pressure;BME280_temperature;BME280_humidity;BME280_pressure;Samples;Min_cycle;Max_cycle;Signal;HPM_P1;HPM_P2
2023/05/01 00:01:05;;;;;;;16.27;7.73;;;;;;;5.74;100.00;101546.31;7390086;19;20411;-40
2023/05/01 00:03:34;;;;;;;13.33;7.10;;;;;;;5.75;100.00;101542.09;7392720;19;20402;-36
2023/05/01 00:06:06;;;;;;;14.07;6.87;;;;;;;5.71;100.00;101514.47;7388739;19;20415;-39
2023/05/01 00:08:39;;;;;;;12.63;6.70;;;;;;;5.71;100.00;101499.09;7392779;19;20422;-39
2023/05/01 00:11:11;;;;;;;14.60;7.00;;;;;;;5.78;100.00;101485.97;7389352;19;20438;-39
2023/05/01 00:13:41;;;;;;;13.97;6.17;;;;;;;5.69;100.00;101470.81;7391587;19;20395;-38
2023/05/01 00:16:11;;;;;;;10.83;6.33;;;;;;;5.65;100.00;101476.50;7391477;19;20447;-41
2023/05/01 00:18:41;;;;;;;11.37;5.70;;;;;;;5.61;100.00;101474.50;7393983;19;20402;-40
2023/05/01 00:21:10;;;;;;;12.33;6.20;;;;;;;5.64;100.00;101469.63;7389465;19;20416;-40
2023/05/01 00:23:43;;;;;;;17.33;6.50;;;;;;;5.59;100.00;101458.13;7392089;19;20391;-38
2023/05/01 00:26:12;;;;;;;10.70;5.87;;;;;;;5.53;100.00;101462.03;7387566;19;20438;-39
2023/05/01 00:28:42;;;;;;;14.67;6.77;;;;;;;5.44;100.00;101463.88;7391392;19;20729;-39
2023/05/01 00:31:11;;;;;;;21.30;6.80;;;;;;;5.49;100.00;101462.56;7391528;19;21130;-37
2023/05/01 00:33:41;;;;;;;14.60;6.77;;;;;;;5.52;100.00;101455.13;7391979;19;20388;-42
2023/05/01 00:36:10;;;;;;;16.60;6.27;;;;;;;5.47;100.00;101447.88;7388576;19;20419;-38
2023/05/01 00:38:43;;;;;;;11.43;5.97;;;;;;;5.42;100.00;101451.78;7392687;19;20914;-41
2023/05/01 00:41:12;;;;;;;13.00;7.83;;;;;;;5.43;100.00;101458.69;7388498;19;20462;-40
2023/05/01 00:43:42;;;;;;;13.93;7.10;;;;;;;5.50;100.00;101448.97;7392877;19;20969;-37
2023/05/01 00:46:12;;;;;;;13.90;6.70;;;;;;;5.39;100.00;101439.66;7389170;19;20438;-37
2023/05/01 00:48:42;;;;;;;14.00;6.13;;;;;;;5.31;100.00;101443.28;7391728;19;20488;-46
2023/05/01 00:51:11;;;;;;;14.60;6.90;;;;;;;5.30;100.00;101459.44;7388376;19;20438;-37
2023/05/01 00:53:45;;;;;;;13.13;5.70;;;;;;;5.32;100.00;101458.75;7391288;19;20384;-39
2023/05/01 00:56:15;;;;;;;17.43;6.50;;;;;;;5.25;100.00;101457.44;7388752;19;20449;-38
2023/05/01 00:58:44;;;;;;;12.90;6.10;;;;;;;5.20;100.00;101460.41;7389418;19;20392;-40
2023/05/01 01:01:14;;;;;;;14.87;6.17;;;;;;;5.11;100.00;101458.03;7389560;19;20467;-40
2023/05/01 01:03:43;;;;;;;16.20;6.37;;;;;;;5.17;100.00;101455.94;7394929;19;20959;-38
2023/05/01 01:06:17;;;;;;;9.03;5.30;;;;;;;5.17;100.00;101455.94;7388282;19;20462;-37
2023/05/01 01:08:57;;;;;;;11.40;5.90;;;;;;;5.10;100.00;101441.81;7392798;19;20395;-40
2023/05/01 01:11:33;;;;;;;10.20;5.30;;;;;;;5.14;100.00;101437.81;7385136;19;20431;-36
2023/05/01 01:14:12;;;;;;;11.10;5.00;;;;;;;5.13;100.00;101425.81;7390673;19;20415;-37
2023/05/01 01:16:47;;;;;;;14.03;5.53;;;;;;;5.17;100.00;101434.63;7388712;19;20426;-37
2023/05/01 01:19:44;;;;;;;13.63;5.87;;;;;;;5.14;100.00;101430.16;7389971;19;20815;-38
2023/05/01 01:22:22;;;;;;;12.90;6.93;;;;;;;5.04;100.00;101437.91;7393439;19;20474;-39
2023/05/01 01:25:16;;;;;;;16.30;5.90;;;;;;;5.09;100.00;101440.03;7391001;19;20402;-38
2023/05/01 01:28:02;;;;;;;12.40;5.03;;;;;;;4.99;100.00;101427.34;7391714;19;20433;-40
2023/05/01 01:30:43;;;;;;;11.13;5.20;;;;;;;4.96;100.00;101428.00;7386229;19;20829;-37
2023/05/01 01:33:40;;;;;;;16.53;6.47;;;;;;;4.93;100.00;101427.75;7389986;19;20854;-38
2023/05/01 01:36:15;;;;;;;12.60;5.77;;;;;;;4.91;100.00;101424.19;7386919;19;20446;-38
2023/05/01 01:38:48;;;;;;;13.00;5.90;;;;;;;4.85;100.00;101433.94;7389356;19;20391;-37
2023/05/01 01:41:22;;;;;;;9.70;5.13;;;;;;;4.78;100.00;101431.72;7387281;19;20486;-43
2023/05/01 01:43:57;;;;;;;10.43;5.17;;;;;;;4.84;100.00;101447.53;7390074;19;20435;-39
2023/05/01 01:46:28;;;;;;;8.80;5.10;;;;;;;4.87;100.00;101437.50;7387449;19;20418;-37
2023/05/01 01:48:58;;;;;;;11.40;5.83;;;;;;;4.90;100.00;101437.75;7389307;19;20388;-41
2023/05/01 01:51:31;;;;;;;9.63;5.13;;;;;;;4.83;100.00;101427.84;7382559;19;20443;-40
2023/05/01 01:54:02;;;;;;;10.17;5.27;;;;;;;4.84;100.00;101444.97;7389466;19;20398;-42
2023/05/01 01:56:32;;;;;;;11.93;4.93;;;;;;;4.76;100.00;101430.72;7386959;19;20442;-39
2023/05/01 01:59:03;;;;;;;9.67;5.07;;;;;;;4.68;100.00;101433.56;7388788;19;20392;-36
2023/05/01 02:01:32;;;;;;;8.43;4.67;;;;;;;4.69;100.00;101435.34;7385420;19;20438;-38
2023/05/01 02:04:04;;;;;;;13.50;5.40;;;;;;;4.66;100.00;101436.78;7390040;19;20410;-38
2023/05/01 02:06:36;;;;;;;10.83;5.33;;;;;;;4.58;100.00;101424.28;7386638;19;20419;-37
2023/05/01 02:09:06;;;;;;;14.13;5.53;;;;;;;4.51;100.00;101421.16;7388680;19;20478;-38
2023/05/01 02:11:36;;;;;;;14.80;5.00;;;;;;;4.52;100.00;101439.16;7386786;19;20462;-37
2023/05/01 02:14:08;;;;;;;10.63;5.20;;;;;;;4.42;100.00;101442.66;7395833;19;20392;-37
2023/05/01 02:16:39;;;;;;;12.70;5.07;;;;;;;4.39;100.00;101441.53;7394373;19;20422;-36
2023/05/01 02:19:09;;;;;;;14.40;5.60;;;;;;;4.33;100.00;101444.50;7394711;19;20399;-38
2023/05/01 02:21:42;;;;;;;9.17;4.63;;;;;;;4.25;100.00;101448.13;7392047;19;20838;-37
2023/05/01 02:24:15;;;;;;;10.97;5.13;;;;;;;4.23;100.00;101455.69;7395231;19;21028;-39
2023/05/01 02:26:48;;;;;;;10.30;4.90;;;;;;;4.28;100.00;101456.94;7400815;19;20455;-37
2023/05/01 02:29:18;;;;;;;11.70;4.30;;;;;;;4.24;100.00;101452.34;7395093;19;20762;-40
2023/05/01 02:31:47;;;;;;;10.90;5.07;;;;;;;4.27;100.00;101460.28;7395025;19;20450;-39
2023/05/01 02:34:17;;;;;;;8.80;4.70;;;;;;;4.29;100.00;101450.16;7395668;19;20410;-38
2023/05/01 02:36:49;;;;;;;13.40;5.47;;;;;;;4.22;100.00;101446.22;7397067;19;20448;-39
2023/05/01 02:39:19;;;;;;;12.23;4.87;;;;;;;4.21;100.00;101454.69;7393535;19;20391;-36
2023/05/01 02:41:50;;;;;;;10.57;5.27;;;;;;;4.07;100.00;101442.44;7391909;19;20418;-37
2023/05/01 02:44:21;;;;;;;10.10;4.53;;;;;;;4.10;100.00;101451.25;7391566;19;20403;-36
2023/05/01 02:46:51;;;;;;;10.43;5.43;;;;;;;4.13;100.00;101443.84;7396896;19;20410;-37
2023/05/01 02:49:21;;;;;;;11.30;5.20;;;;;;;4.15;100.00;101444.84;7390565;19;20754;-37
2023/05/01 02:51:54;;;;;;;11.03;5.07;;;;;;;4.08;100.00;101444.22;7392291;19;20431;-36
2023/05/01 02:54:24;;;;;;;13.30;5.80;;;;;;;3.97;100.00;101454.50;7391136;19;20388;-38
2023/05/01 02:56:53;;;;;;;13.97;6.07;;;;;;;3.95;100.00;101467.91;7393439;19;20762;-39
2023/05/01 02:59:23;;;;;;;12.00;5.00;;;;;;;3.95;100.00;101462.81;7390613;19;20396;-38
2023/05/01 03:01:52;;;;;;;10.87;5.43;;;;;;;4.06;100.00;101469.69;7392240;19;20798;-38
2023/05/01 03:04:22;;;;;;;13.27;5.40;;;;;;;4.02;100.00;101465.09;7388347;19;20383;-38
2023/05/01 03:06:54;;;;;;;13.70;5.00;;;;;;;3.91;100.00;101462.56;7393595;19;20392;-38
2023/05/01 03:09:24;;;;;;;14.40;5.20;;;;;;;3.98;100.00;101468.16;7393047;19;20727;-36
2023/05/01 03:11:53;;;;;;;11.87;4.90;;;;;;;3.86;100.00;101453.66;7391894;19;20423;-36
2023/05/01 03:14:24;;;;;;;11.90;4.27;;;;;;;3.90;100.00;101459.91;7390470;19;20384;-39
2023/05/01 03:16:53;;;;;;;12.23;5.33;;;;;;;4.06;100.00;101454.34;7392132;19;20689;-38
2023/05/01 03:19:23;;;;;;;10.73;5.07;;;;;;;4.01;100.00;101456.50;7390785;19;20464;-39
2023/05/01 03:21:55;;;;;;;10.33;4.00;;;;;;;3.94;100.00;101446.59;7390791;19;21085;-36
2023/05/01 03:24:25;;;;;;;9.50;4.47;;;;;;;3.88;100.00;101448.66;7393116;19;20392;-37
2023/05/01 03:26:55;;;;;;;10.40;5.07;;;;;;;3.97;100.00;101451.06;7396756;19;20407;-38
2023/05/01 03:29:25;;;;;;;9.87;4.83;;;;;;;4.07;100.00;101439.91;7390401;19;20392;-36
2023/05/01 03:31:56;;;;;;;7.40;4.07;;;;;;;3.99;100.00;101434.22;7391673;19;20407;-41
2023/05/01 03:34:26;;;;;;;10.27;4.13;;;;;;;3.92;100.00;101427.72;7389643;19;20479;-37
2023/05/01 03:36:58;;;;;;;11.10;4.57;;;;;;;3.81;100.00;101424.31;7392538;19;20395;-39
2023/05/01 03:39:27;;;;;;;11.63;4.80;;;;;;;3.85;100.00;101422.88;7389636;19;20415;-36
2023/05/01 03:41:57;;;;;;;16.87;7.73;;;;;;;4.23;100.00;101481.22;7390951;19;20419;-36
2023/05/01 03:44:27;;;;;;;14.40;5.87;;;;;;;4.43;100.00;101510.91;7389387;19;20945;-37
2023/05/01 03:46:57;;;;;;;11.30;4.93;;;;;;;4.56;100.00;101511.88;7395500;19;20411;-37
2023/05/01 03:49:27;;;;;;;26.33;11.77;;;;;;;4.51;100.00;101487.63;7389214;19;20416;-38
2023/05/01 03:51:59;;;;;;;16.30;6.80;;;;;;;4.61;100.00;101474.75;7391255;19;20423;-38
2023/05/01 03:54:29;;;;;;;17.17;7.00;;;;;;;4.69;100.00;101443.03;7388953;19;20937;-38
2023/05/01 03:56:59;;;;;;;9.20;4.87;;;;;;;4.63;100.00;101406.78;7391737;19;20415;-37
2023/05/01 03:59:29;;;;;;;13.20;4.97;;;;;;;4.67;100.00;101382.34;7389585;19;20797;-37
2023/05/01 04:01:58;;;;;;;10.90;4.93;;;;;;;4.73;100.00;101355.53;7390829;19;20450;-37
2023/05/01 04:04:28;;;;;;;13.80;5.10;;;;;;;4.66;100.00;101324.31;7388917;19;20463;-39
2023/05/01 04:07:01;;;;;;;10.93;4.53;;;;;;;4.94;100.00;101328.91;7391465;19;20399;-38
2023/05/01 04:09:31;;;;;;;10.77;4.93;;;;;;;4.81;100.00;101296.41;7386554;19;20400;-38
2023/05/01 04:12:01;;;;;;;8.83;3.87;;;;;;;4.48;100.00;101265.94;7390066;19;20416;-37
2023/05/01 04:14:31;;;;;;;10.23;4.50;;;;;;;4.35;100.00;101271.78;7389166;19;20375;-36
2023/05/01 04:17:00;;;;;;;8.60;3.90;;;;;;;4.16;100.00;101280.59;7392460;19;20414;-38
2023/05/01 04:19:30;;;;;;;13.60;5.10;;;;;;;4.29;100.00;101301.97;7388947;19;20399;-38
2023/05/01 04:22:02;;;;;;;10.00;4.57;;;;;;;4.36;100.00;101304.19;7389891;19;20407;-38
2023/05/01 04:24:32;;;;;;;9.57;4.77;;;;;;;4.44;100.00;101310.81;7388394;19;20388;-38
2023/05/01 04:27:01;;;;;;;11.40;4.97;;;;;;;4.44;100.00;101298.03;7392078;19;20391;-41
2023/05/01 04:29:31;;;;;;;15.13;5.10;;;;;;;4.35;100.00;101291.34;7386035;19;20762;-38
2023/05/01 04:32:00;;;;;;;10.73;4.90;;;;;;;4.52;100.00;101301.13;7390321;19;20432;-39
2023/05/01 04:34:30;;;;;;;11.53;4.80;;;;;;;4.52;100.00;101308.81;7387715;19;20391;-36
2023/05/01 04:37:03;;;;;;;11.20;5.10;;;;;;;4.85;100.00;101327.47;7390862;19;20398;-37
2023/05/01 04:39:32;;;;;;;13.53;5.47;;;;;;;5.21;100.00;101342.84;7387305;19;20934;-38
2023/05/01 04:42:02;;;;;;;9.77;4.80;;;;;;;5.35;100.00;101325.03;7390088;19;20427;-40
2023/05/01 04:44:33;;;;;;;10.83;4.70;;;;;;;5.46;100.00;101303.66;7387829;19;20934;-37
2023/05/01 04:47:03;;;;;;;10.23;4.40;;;;;;;5.60;100.00;101288.38;7390698;19;20807;-38
2023/05/01 04:49:33;;;;;;;11.70;4.77;;;;;;;5.66;100.00;101276.00;7387750;19;20395;-39
2023/05/01 04:52:06;;;;;;;10.50;4.27;;;;;;;5.63;100.00;101229.69;7386122;19;21019;-38
2023/05/01 04:54:35;;;;;;;14.33;5.07;;;;;;;5.65;100.00;101221.34;7389069;19;20934;-36
2023/05/01 04:57:08;;;;;;;13.13;4.83;;;;;;;5.62;100.00;101182.75;7393300;19;20426;-39
2023/05/01 04:59:38;;;;;;;15.90;5.67;;;;;;;5.78;100.00;101189.81;7389574;19;20407;-37
2023/05/01 05:02:07;;;;;;;14.63;5.63;;;;;;;5.69;100.00;101168.69;7392864;19;20482;-36
2023/05/01 05:04:37;;;;;;;12.70;4.83;;;;;;;5.79;100.00;101173.66;7389198;19;20947;-38
2023/05/01 05:07:10;;;;;;;17.67;5.70;;;;;;;5.78;100.00;101153.94;7393440;19;20394;-38
2023/05/01 05:09:39;;;;;;;10.50;4.80;;;;;;;5.84;100.00;101148.34;7388712;19;20441;-42
2023/05/01 05:12:09;;;;;;;10.10;4.87;;;;;;;5.99;100.00;101160.44;7392816;19;20813;-38
2023/05/01 05:14:38;;;;;;;7.90;3.97;;;;;;;6.00;100.00;101114.41;7385368;19;20982;-36
2023/05/01 05:17:11;;;;;;;10.80;5.20;;;;;;;5.96;100.00;101102.19;7393236;19;20399;-40
2023/05/01 05:19:41;;;;;;;12.77;5.87;;;;;;;5.91;100.00;101083.94;7388990;19;20426;-37
2023/05/01 05:22:14;;;;;;;9.00;4.20;;;;;;;5.88;100.00;101073.50;7393178;19;20462;-38
2023/05/01 05:24:45;;;;;;;10.23;4.77;;;;;;;6.08;100.00;101102.13;7391096;19;20417;-39
2023/05/01 05:27:15;;;;;;;13.40;5.23;;;;;;;6.12;100.00;101082.72;7392624;19;20424;-37
2023/05/01 05:29:45;;;;;;;11.50;5.00;;;;;;;6.15;100.00;101077.81;7388376;19;20399;-42
2023/05/01 05:32:14;;;;;;;11.53;4.30;;;;;;;6.11;100.00;101070.72;7392574;19;20442;-38
2023/05/01 05:34:44;;;;;;;8.50;4.07;;;;;;;6.31;100.00;101067.75;7389047;19;20432;-37
2023/05/01 05:37:16;;;;;;;13.37;5.00;;;;;;;6.22;100.00;101038.97;7393299;19;20423;-39
2023/05/01 05:39:45;;;;;;;12.80;4.77;;;;;;;6.23;100.00;101040.75;7387574;19;20399;-37
2023/05/01 05:42:15;;;;;;;9.17;4.37;;;;;;;6.50;100.00;101047.53;7392615;19;20820;-38
2023/05/01 05:44:44;;;;;;;11.13;5.23;;;;;;;6.53;100.00;101020.41;7390393;19;20403;-37
2023/05/01 05:47:14;;;;;;;10.87;4.60;;;;;;;6.57;100.00;101004.41;7398745;19;20956;-38
2023/05/01 05:49:44;;;;;;;10.50;5.00;;;;;;;6.56;100.00;100979.56;7394556;19;20438;-37
2023/05/01 05:52:16;;;;;;;9.80;4.07;;;;;;;6.50;100.00;100965.50;7398074;19;20798;-37
2023/05/01 05:54:45;;;;;;;8.43;4.27;;;;;;;6.44;100.00;100961.75;7394580;19;20395;-37
2023/05/01 05:57:15;;;;;;;11.47;5.03;;;;;;;6.67;100.00;100969.09;7399358;19;20396;-39
2023/05/01 05:59:45;;;;;;;12.17;4.80;;;;;;;6.65;100.00;100955.31;7393271;19;21045;-42
2023/05/01 06:02:15;;;;;;;6.67;3.80;;;;;;;6.83;100.00;100952.97;7399022;19;20487;-38
2023/05/01 06:04:44;;;;;;;9.70;4.03;;;;;;;6.87;100.00;100945.53;7394117;19;20415;-37
2023/05/01 06:07:17;;;;;;;7.50;3.50;;;;;;;6.88;100.00;100937.03;7398784;19;20779;-44
2023/05/01 06:09:46;;;;;;;14.17;4.50;;;;;;;6.86;100.00;100933.50;7391320;19;20406;-38
2023/05/01 06:12:16;;;;;;;14.77;4.30;;;;;;;6.99;100.00;100939.38;7398234;19;20473;-35
2023/05/01 06:14:46;;;;;;;10.77;4.33;;;;;;;7.01;100.00;100932.63;7393406;19;20947;-42
2023/05/01 06:17:16;;;;;;;12.07;4.40;;;;;;;7.35;100.00;100929.50;7397639;19;20934;-40
2023/05/01 06:19:45;;;;;;;7.40;3.90;;;;;;;7.35;100.00;100947.47;7393251;19;20399;-36
2023/05/01 06:22:18;;;;;;;9.70;3.97;;;;;;;7.40;100.00;100961.41;7398156;19;20435;-36
2023/05/01 06:24:47;;;;;;;11.93;3.50;;;;;;;7.36;100.00;100992.88;7391830;19;20411;-38
2023/05/01 06:27:17;;;;;;;10.20;3.30;;;;;;;7.52;100.00;100998.88;7393586;19;20396;-37
2023/05/01 06:29:46;;;;;;;9.60;4.23;;;;;;;7.68;100.00;101009.25;7386770;19;20415;-37
2023/05/01 06:32:16;;;;;;;10.40;4.10;;;;;;;7.84;100.00;101035.81;7391362;19;20427;-38
2023/05/01 06:34:45;;;;;;;7.57;3.77;;;;;;;7.92;100.00;101088.53;7393637;19;20977;-37
2023/05/01 06:37:18;;;;;;;9.23;4.10;;;;;;;8.08;100.00;101087.72;7397436;19;20770;-37
2023/05/01 06:39:49;;;;;;;10.80;3.87;;;;;;;8.26;100.00;101104.09;7390713;19;20448;-38
2023/05/01 06:42:21;;;;;;;12.87;4.07;;;;;;;8.21;100.00;101186.97;7397082;19;20450;-37
2023/05/01 06:44:51;;;;;;;10.27;3.73;;;;;;;8.49;100.00;101191.16;7390906;19;20752;-37
2023/05/01 06:47:21;;;;;;;14.83;5.60;;;;;;;8.65;100.00;101235.78;7397928;19;20438;-39
2023/05/01 06:49:50;;;;;;;13.00;6.60;;;;;;;8.76;100.00;101260.44;7392264;19;20431;-37
2023/05/01 06:52:22;;;;;;;13.73;3.90;;;;;;;8.73;100.00;101329.72;7396665;19;21364;-36
2023/05/01 06:54:52;;;;;;;20.57;9.00;;;;;;;8.89;100.00;101315.19;7393062;19;20415;-40
2023/05/01 06:57:22;;;;;;;10.70;4.50;;;;;;;8.98;100.00;101338.88;7395287;19;20411;-36
2023/05/01 06:59:51;;;;;;;17.80;7.23;;;;;;;9.04;100.00;101375.25;7387584;19;20434;-38
2023/05/01 07:02:21;;;;;;;9.57;4.53;;;;;;;9.21;100.00;101389.91;7396895;19;20452;-36
2023/05/01 07:04:50;;;;;;;14.47;5.83;;;;;;;9.36;100.00;101384.75;7392627;19;20431;-38
2023/05/01 07:07:23;;;;;;;19.90;8.93;;;;;;;9.49;100.00;101412.97;7396703;19;20395;-36
2023/05/01 07:09:52;;;;;;;12.80;5.30;;;;;;;9.64;100.00;101422.38;7390634;19;20411;-37
2023/05/01 07:12:22;;;;;;;14.13;6.13;;;;;;;9.80;100.00;101424.13;7396684;19;20487;-36
2023/05/01 07:14:52;;;;;;;12.40;3.33;;;;;;;9.73;100.00;101489.88;7392515;19;20406;-38
2023/05/01 07:17:21;;;;;;;8.73;3.03;;;;;;;9.79;100.00;101515.13;7396410;19;20411;-37
2023/05/01 07:19:51;;;;;;;6.87;3.27;;;;;;;9.76;100.00;101531.31;7391563;19;20411;-36
2023/05/01 07:22:23;;;;;;;8.70;3.03;;;;;;;9.69;100.00;101536.91;7396131;19;20451;-38
2023/05/01 07:24:53;;;;;;;8.00;3.40;;;;;;;9.83;100.00;101537.69;7391945;19;20415;-35
2023/05/01 07:27:23;;;;;;;10.10;3.07;;;;;;;10.09;100.00;101528.84;7396745;19;20407;-37
2023/05/01 07:29:53;;;;;;;9.27;3.63;;;;;;;10.29;100.00;101523.91;7391620;19;20487;-37
2023/05/01 07:32:23;;;;;;;9.57;2.90;;;;;;;10.43;100.00;101531.56;7396021;19;20439;-38
2023/05/01 07:34:53;;;;;;;7.53;3.60;;;;;;;10.50;100.00;101529.41;7392326;19;20412;-37
2023/05/01 07:37:25;;;;;;;11.97;3.93;;;;;;;10.50;100.00;101534.56;7395537;19;20419;-38
2023/05/01 07:39:55;;;;;;;11.60;3.97;;;;;;;10.44;100.00;101533.31;7391153;19;20763;-37
2023/05/01 07:42:25;;;;;;;9.07;3.37;;;;;;;10.46;100.00;101524.88;7395733;19;20958;-36
2023/05/01 07:44:54;;;;;;;10.73;3.13;;;;;;;10.53;100.00;101518.34;7391916;19;20403;-37
2023/05/01 07:47:26;;;;;;;7.20;2.70;;;;;;;10.67;100.00;101517.41;7396884;19;20419;-38
2023/05/01 07:49:56;;;;;;;8.20;3.53;;;;;;;10.85;100.00;101516.59;7391001;19;20486;-37
2023/05/01 07:52:28;;;;;;;8.07;3.50;;;;;;;10.99;100.00;101508.69;7395113;19;20460;-37
2023/05/01 07:54:58;;;;;;;9.17;3.10;;;;;;;11.02;100.00;101511.44;7390969;19;20424;-39
2023/05/01 07:57:27;;;;;;;8.07;2.73;;;;;;;11.08;100.00;101498.84;7396081;19;20422;-37
2023/05/01 07:59:57;;;;;;;7.13;3.20;;;;;;;11.07;100.00;101484.13;7390749;19;20419;-37
2023/05/01 08:02:27;;;;;;;8.47;3.33;;;;;;;11.10;100.00;101486.91;7396371;19;20462;-37
2023/05/01 08:04:56;;;;;;;13.90;6.43;;;;;;;11.41;100.00;101501.38;7390955;19;20438;-38
2023/05/01 08:07:29;;;;;;;16.53;6.30;;;;;;;11.74;100.00;101511.59;7395868;19;20408;-36
2023/05/01 08:09:59;;;;;;;15.87;7.50;;;;;;;11.80;100.00;101468.78;7386602;19;20407;-41
2023/05/01 08:12:30;;;;;;;6.20;3.07;;;;;;;11.95;99.30;101451.38;7394455;19;20453;-37
2023/05/01 08:14:59;;;;;;;14.70;5.30;;;;;;;11.82;98.37;101433.53;7390839;19;20423;-37
2023/05/01 08:17:29;;;;;;;7.63;2.80;;;;;;;11.71;96.80;101427.84;7393539;19;20430;-36
2023/05/01 08:19:58;;;;;;;12.63;3.07;;;;;;;11.54;95.40;101406.38;7390701;19;20773;-37
2023/05/01 08:22:31;;;;;;;7.37;2.43;;;;;;;11.74;96.02;101415.06;7386980;19;20443;-36
2023/05/01 08:25:01;;;;;;;13.37;3.90;;;;;;;11.82;96.42;101420.59;7386620;19;20442;-36
2023/05/01 08:27:31;;;;;;;8.73;3.80;;;;;;;11.53;95.09;101400.31;7388929;19;20997;-36
2023/05/01 08:30:00;;;;;;;7.97;2.70;;;;;;;11.59;95.90;101407.47;7386186;19;20423;-38
2023/05/01 08:32:31;;;;;;;6.57;2.70;;;;;;;11.60;95.37;101402.38;7388650;19;20982;-36
2023/05/01 08:35:00;;;;;;;12.70;2.60;;;;;;;11.46;96.60;101418.91;7387240;19;20411;-36
2023/05/01 08:37:32;;;;;;;9.47;3.40;;;;;;;11.39;96.79;101422.00;7389993;19;20391;-37
2023/05/01 08:40:07;;;;;;;16.73;2.97;;;;;;;11.61;98.32;101442.94;7386629;19;20466;-38
2023/05/01 08:42:37;;;;;;;6.53;3.27;;;;;;;11.93;98.12;101442.69;7391652;19;20437;-36
2023/05/01 08:45:09;;;;;;;10.20;3.30;;;;;;;12.23;98.41;101441.47;7388677;19;20422;-36
2023/05/01 08:47:42;;;;;;;7.70;3.10;;;;;;;12.37;97.43;101434.34;7390423;19;20384;-36
2023/05/01 08:50:12;;;;;;;5.50;2.80;;;;;;;12.06;97.42;101418.31;7387691;19;20771;-36
2023/05/01 08:52:45;;;;;;;8.13;3.30;;;;;;;12.18;98.54;101433.50;7390075;19;20431;-36
2023/05/01 08:55:16;;;;;;;6.83;3.07;;;;;;;12.16;97.03;101406.69;7384781;19;20439;-35
2023/05/01 08:57:47;;;;;;;10.80;3.67;;;;;;;12.16;96.22;101393.75;7390221;19;20416;-37
2023/05/01 09:00:20;;;;;;;9.43;3.07;;;;;;;12.31;96.58;101390.09;7385392;19;20817;-37
2023/05/01 09:02:51;;;;;;;9.13;3.60;;;;;;;12.15;95.60;101386.78;7389966;19;21355;-37
2023/05/01 09:05:22;;;;;;;10.73;3.13;;;;;;;12.22;96.61;101390.56;7387658;19;20429;-40
2023/05/01 09:07:55;;;;;;;10.80;3.10;;;;;;;12.58;96.98;101402.47;7389882;19;20388;-37
2023/05/01 09:10:26;;;;;;;12.23;3.50;;;;;;;12.66;95.56;101373.50;7385714;19;20824;-35
2023/05/01 09:12:58;;;;;;;7.33;3.40;;;;;;;12.74;95.82;101371.25;7390546;19;20427;-37
2023/05/01 09:15:28;;;;;;;10.77;4.13;;;;;;;12.83;95.76;101373.34;7389009;19;20439;-36
2023/05/01 09:17:59;;;;;;;13.33;3.50;;;;;;;13.07;96.57;101378.66;7390328;19;20380;-36
2023/05/01 09:20:36;;;;;;;7.93;3.37;;;;;;;12.63;95.00;101359.56;7388853;19;20428;-36
2023/05/01 09:23:08;;;;;;;7.57;2.90;;;;;;;12.55;95.39;101360.13;7395927;19;20528;-35
2023/05/01 09:25:37;;;;;;;10.30;3.20;;;;;;;12.86;94.63;101346.72;7394024;19;20781;-35
2023/05/01 09:28:07;;;;;;;9.07;3.50;;;;;;;12.97;93.97;101345.44;7395623;19;20395;-36
2023/05/01 09:30:38;;;;;;;7.20;3.50;;;;;;;13.16;94.92;101346.19;7393550;19;20438;-36
2023/05/01 09:33:11;;;;;;;8.90;3.37;;;;;;;13.19;94.21;101339.41;7399228;19;20419;-38
2023/05/01 09:35:54;;;;;;;9.67;3.63;;;;;;;13.29;93.26;101326.84;7393833;19;20422;-36
2023/05/01 09:38:28;;;;;;;10.20;3.13;;;;;;;13.15;92.65;101323.69;7396777;19;20391;-36
2023/05/01 09:41:05;;;;;;;8.53;2.50;;;;;;;13.41;91.56;101301.41;7391111;19;20415;-36
2023/05/01 09:43:35;;;;;;;5.40;2.77;;;;;;;13.53;89.49;101289.78;7395150;19;20414;-36
2023/05/01 09:46:08;;;;;;;9.77;2.67;;;;;;;13.30;88.96;101275.09;7394479;19;20420;-36
2023/05/01 09:48:39;;;;;;;8.43;3.03;;;;;;;13.44;90.54;101290.28;7398312;19;21075;-36
2023/05/01 09:51:24;;;;;;;10.67;3.27;;;;;;;13.63;91.31;101307.44;7392694;19;20419;-38
2023/05/01 09:53:57;;;;;;;9.23;3.33;;;;;;;13.56;92.33;101316.72;7394395;19;20970;-36
2023/05/01 09:56:28;;;;;;;8.33;2.77;;;;;;;13.86;93.46;101321.28;7394528;19;20414;-36
2023/05/01 09:58:58;;;;;;;7.67;3.03;;;;;;;14.09;92.00;101303.06;7394470;19;20399;-38
2023/05/01 10:01:41;;;;;;;7.63;2.90;;;;;;;14.12;90.27;101281.53;7392988;19;20507;-37
2023/05/01 10:04:11;;;;;;;7.83;3.10;;;;;;;14.06;90.78;101277.03;7394737;19;20394;-35
2023/05/01 10:06:41;;;;;;;7.70;3.33;;;;;;;14.30;89.87;101281.28;7393450;19;20421;-40
2023/05/01 10:09:16;;;;;;;7.77;2.93;;;;;;;14.26;85.53;101236.19;7394960;19;20398;-37
2023/05/01 10:11:50;;;;;;;5.00;2.20;;;;;;;14.33;83.74;101229.50;7394532;19;20453;-35
2023/05/01 10:14:22;;;;;;;7.20;3.23;;;;;;;13.78;82.74;101208.59;7390248;19;20408;-42
2023/05/01 10:16:53;;;;;;;9.83;2.50;;;;;;;13.90;84.85;101224.59;7397649;19;20776;-36
2023/05/01 10:19:23;;;;;;;16.17;4.40;;;;;;;13.79;84.91;101220.72;7395822;19;20927;-38
2023/05/01 10:21:52;;;;;;;12.23;3.97;;;;;;;14.06;85.70;101234.63;7396028;19;20452;-38
2023/05/01 10:24:25;;;;;;;10.47;3.90;;;;;;;13.98;85.47;101227.47;7395060;19;20420;-36
2023/05/01 10:26:55;;;;;;;11.20;3.90;;;;;;;14.30;85.28;101229.38;7398177;19;20438;-38
2023/05/01 10:29:29;;;;;;;9.80;2.97;;;;;;;14.54;83.93;101212.88;7394913;19;20420;-37
2023/05/01 10:31:59;;;;;;;8.73;3.60;;;;;;;14.52;84.59;101222.34;7394148;19;20801;-38
2023/05/01 10:34:29;;;;;;;9.77;3.20;;;;;;;14.65;85.02;101218.41;7395248;19;20404;-38
2023/05/01 10:37:01;;;;;;;4.80;2.60;;;;;;;15.00;85.72;101216.09;7397456;19;20417;-38
2023/05/01 10:39:35;;;;;;;10.33;2.70;;;;;;;15.22;84.89;101203.72;7392997;19;20418;-37
2023/05/01 10:42:10;;;;;;;7.70;3.10;;;;;;;15.21;79.15;101143.09;7396693;19;20497;-42
2023/05/01 10:44:40;;;;;;;7.30;2.60;;;;;;;15.02;79.86;101143.38;7391937;19;20856;-39
2023/05/01 10:47:41;;;;;;;7.23;3.00;;;;;;;15.48;80.78;101155.09;7397429;19;20742;-37
2023/05/01 10:50:14;;;;;;;6.10;2.63;;;;;;;15.44;78.01;101132.44;7392225;19;20451;-37
2023/05/01 10:53:15;;;;;;;8.43;3.00;;;;;;;15.85;77.56;101129.19;7396341;19;20449;-36
2023/05/01 10:55:48;;;;;;;7.07;2.43;;;;;;;15.68;77.39;101131.34;7392192;19;20470;-36
2023/05/01 10:58:56;;;;;;;7.40;2.70;;;;;;;15.72;78.45;101135.81;7400394;19;20796;-36
2023/05/01 11:01:30;;;;;;;7.70;3.10;;;;;;;15.68;78.62;101131.34;7392236;19;20490;-38
2023/05/01 11:04:01;;;;;;;5.40;2.30;;;;;;;15.46;78.84;101129.88;7396522;19;20430;-38
2023/05/01 11:06:31;;;;;;;7.27;3.03;;;;;;;15.22;80.34;101142.25;7394493;19;20776;-39
2023/05/01 11:09:01;;;;;;;9.17;2.67;;;;;;;15.37;80.81;101143.50;7396884;19;20440;-36
2023/05/01 11:11:51;;;;;;;6.80;2.80;;;;;;;15.50;80.92;101143.00;7389970;19;20481;-36
2023/05/01 11:14:22;;;;;;;8.10;3.00;;;;;;;15.24;81.49;101144.91;7394398;19;20411;-37
2023/05/01 11:16:51;;;;;;;6.23;2.70;;;;;;;15.53;81.00;101137.00;7395881;19;20420;-38
2023/05/01 11:19:51;;;;;;;9.43;2.53;;;;;;;16.03;80.88;101143.53;7394522;19;20419;-38
2023/05/01 11:22:21;;;;;;;7.63;2.50;;;;;;;16.35;80.55;101130.44;7396790;19;21083;-37
2023/05/01 11:24:50;;;;;;;7.97;2.67;;;;;;;16.33;80.42;101122.63;7393412;19;20403;-38
2023/05/01 11:27:23;;;;;;;8.43;2.70;;;;;;;16.46;79.79;101112.50;7397030;19;20423;-38
2023/05/01 11:29:53;;;;;;;7.70;2.60;;;;;;;16.46;80.30;101117.69;7391681;19;20400;-40
2023/05/01 11:32:26;;;;;;;9.33;3.20;;;;;;;16.46;80.29;101117.69;7395779;19;20443;-36
2023/05/01 11:34:56;;;;;;;7.90;2.93;;;;;;;16.12;80.20;101106.47;7392301;19;20527;-36
2023/05/01 11:37:43;;;;;;;9.27;3.00;;;;;;;16.45;79.83;101110.72;7397180;19;20403;-36
2023/05/01 11:40:23;;;;;;;8.53;2.70;;;;;;;16.60;80.25;101095.44;7389576;19;20423;-37